sensor_id;sensor_type;location;lat;lon;timestamp;P1;durP1;ratioP1;P2;durP2;ratioP2
20721;SDS011;10522;52.198;9.890;2023-05-17T00:01:47;14.50;;;4.00;;
20721;SDS011;10522;52.198;9.890;2023-05-17T00:04:12;7.57;;;3.27;;
20721;SDS011;10522;52.198;9.890;2023-05-17T00:06:38;8.40;;;3.43;;
20721;SDS011;10522;52.198;9.890;2023-05-17T00:09:03;9.43;;;3.33;;
20721;SDS011;10522;52.198;9.890;2023-05-17T00:11:29;5.27;;;2.60;;
20721;SDS011;10522;52.198;9.890;2023-05-17T00:13:55;11.63;;;3.30;;
20721;SDS011;10522;52.198;9.890;2023-05-17T00:16:20;6.03;;;2.73;;
20721;SDS011;10522;52.198;9.890;2023-05-17T00:18:46;7.00;;;3.50;;
20721;SDS011;10522;52.198;9.890;2023-05-17T00:21:12;6.30;;;3.30;;
20721;SDS011;10522;52.198;9.890;2023-05-17T00:23:37;8.73;;;3.23;;
20721;SDS011;10522;52.198;9.890;2023-05-17T00:26:03;5.53;;;2.77;;
20721;SDS011;10522;52.198;9.890;2023-05-17T00:28:28;8.50;;;3.00;;
20721;SDS011;10522;52.198;9.890;2023-05-17T00:30:54;13.93;;;3.20;;
20721;SDS011;10522;52.198;9.890;2023-05-17T00:33:20;7.40;;;2.70;;
20721;SDS011;10522;52.198;9.890;2023-05-17T00:35:45;6.20;;;3.17;;
20721;SDS011;10522;52.198;9.890;2023-05-17T00:38:11;12.03;;;3.10;;
20721;SDS011;10522;52.198;9.890;2023-05-17T00:40:36;7.50;;;3.40;;
20721;SDS011;10522;52.198;9.890;2023-05-17T00:43:02;7.53;;;3.40;;
20721;SDS011;10522;52.198;9.890;2023-05-17T00:45:27;9.80;;;3.80;;
20721;SDS011;10522;52.198;9.890;2023-05-17T00:47:53;12.53;;;3.67;;
20721;SDS011;10522;52.198;9.890;2023-05-17T00:50:19;12.70;;;3.40;;
20721;SDS011;10522;52.198;9.890;2023-05-17T00:52:45;7.03;;;2.97;;
20721;SDS011;10522;52.198;9.890;2023-05-17T00:55:10;9.97;;;3.13;;
20721;SDS011;10522;52.198;9.890;2023-05-17T00:57:36;7.67;;;3.27;;
20721;SDS011;10522;52.198;9.890;2023-05-17T01:00:02;8.53;;;3.60;;
20721;SDS011;10522;52.198;9.890;2023-05-17T01:02:28;7.37;;;2.93;;
20721;SDS011;10522;52.198;9.890;2023-05-17T01:04:54;5.40;;;3.10;;
20721;SDS011;10522;52.198;9.890;2023-05-17T01:07:19;6.23;;;2.70;;
20721;SDS011;10522;52.198;9.890;2023-05-17T01:09:45;14.97;;;3.70;;
20721;SDS011;10522;52.198;9.890;2023-05-17T01:14:50;10.20;;;3.20;;
20721;SDS011;10522;52.198;9.890;2023-05-17T01:20:27;13.70;;;3.30;;
20721;SDS011;10522;52.198;9.890;2023-05-17T01:23:13;7.47;;;3.53;;
20721;SDS011;10522;52.198;9.890;2023-05-17T01:26:13;11.77;;;3.13;;
20721;SDS011;10522;52.198;9.890;2023-05-17T01:28:57;11.57;;;3.13;;
20721;SDS011;10522;52.198;9.890;2023-05-17T01:31:24;12.37;;;4.07;;
20721;SDS011;10522;52.198;9.890;2023-05-17T01:33:50;16.47;;;4.03;;
20721;SDS011;10522;52.198;9.890;2023-05-17T01:36:16;12.77;;;3.60;;
20721;SDS011;10522;52.198;9.890;2023-05-17T01:38:41;10.50;;;3.30;;
20721;SDS011;10522;52.198;9.890;2023-05-17T01:41:12;8.00;;;3.33;;
20721;SDS011;10522;52.198;9.890;2023-05-17T01:44:32;4.83;;;2.77;;
20721;SDS011;10522;52.198;9.890;2023-05-17T01:46:32;11.63;;;3.33;;
20721;SDS011;10522;52.198;9.890;2023-05-17T01:51:56;7.87;;;3.33;;
20721;SDS011;10522;52.198;9.890;2023-05-17T01:54:30;12.63;;;3.40;;
20721;SDS011;10522;52.198;9.890;2023-05-17T01:56:59;9.70;;;3.43;;
20721;SDS011;10522;52.198;9.890;2023-05-17T01:59:30;10.37;;;4.10;;
20721;SDS011;10522;52.198;9.890;2023-05-17T02:01:59;11.00;;;3.40;;
20721;SDS011;10522;52.198;9.890;2023-05-17T02:04:32;14.07;;;3.80;;
20721;SDS011;10522;52.198;9.890;2023-05-17T02:07:01;10.80;;;3.87;;
20721;SDS011;10522;52.198;9.890;2023-05-17T02:09:27;13.20;;;4.20;;
20721;SDS011;10522;52.198;9.890;2023-05-17T02:11:53;11.03;;;3.70;;
20721;SDS011;10522;52.198;9.890;2023-05-17T02:14:18;11.27;;;3.60;;
20721;SDS011;10522;52.198;9.890;2023-05-17T02:16:44;11.33;;;4.63;;
20721;SDS011;10522;52.198;9.890;2023-05-17T02:19:10;9.60;;;3.87;;
20721;SDS011;10522;52.198;9.890;2023-05-17T02:21:37;17.53;;;4.83;;
20721;SDS011;10522;52.198;9.890;2023-05-17T02:24:03;12.83;;;4.17;;
20721;SDS011;10522;52.198;9.890;2023-05-17T02:26:29;16.97;;;4.10;;
20721;SDS011;10522;52.198;9.890;2023-05-17T02:28:55;9.73;;;4.10;;
20721;SDS011;10522;52.198;9.890;2023-05-17T02:31:21;14.97;;;4.40;;
20721;SDS011;10522;52.198;9.890;2023-05-17T02:33:48;17.17;;;4.60;;
20721;SDS011;10522;52.198;9.890;2023-05-17T02:36:14;12.70;;;4.63;;
20721;SDS011;10522;52.198;9.890;2023-05-17T02:38:40;12.60;;;3.93;;
20721;SDS011;10522;52.198;9.890;2023-05-17T02:41:05;15.97;;;4.30;;
20721;SDS011;10522;52.198;9.890;2023-05-17T02:43:31;11.10;;;4.70;;
20721;SDS011;10522;52.198;9.890;2023-05-17T02:45:56;13.57;;;5.23;;
20721;SDS011;10522;52.198;9.890;2023-05-17T02:48:22;19.53;;;5.57;;
20721;SDS011;10522;52.198;9.890;2023-05-17T02:50:47;16.77;;;4.03;;
20721;SDS011;10522;52.198;9.890;2023-05-17T02:53:13;9.67;;;4.60;;
20721;SDS011;10522;52.198;9.890;2023-05-17T02:55:38;13.93;;;5.17;;
20721;SDS011;10522;52.198;9.890;2023-05-17T02:58:04;18.80;;;5.67;;
20721;SDS011;10522;52.198;9.890;2023-05-17T03:00:29;17.10;;;6.20;;
20721;SDS011;10522;52.198;9.890;2023-05-17T03:02:55;11.27;;;4.13;;
20721;SDS011;10522;52.198;9.890;2023-05-17T03:05:21;22.03;;;4.97;;
20721;SDS011;10522;52.198;9.890;2023-05-17T03:07:46;14.20;;;4.60;;
20721;SDS011;10522;52.198;9.890;2023-05-17T03:10:12;11.63;;;4.43;;
20721;SDS011;10522;52.198;9.890;2023-05-17T03:12:37;12.03;;;4.53;;
20721;SDS011;10522;52.198;9.890;2023-05-17T03:15:03;9.43;;;3.97;;
20721;SDS011;10522;52.198;9.890;2023-05-17T03:17:29;15.40;;;4.70;;
20721;SDS011;10522;52.198;9.890;2023-05-17T03:19:55;20.93;;;5.37;;
20721;SDS011;10522;52.198;9.890;2023-05-17T03:22:21;17.27;;;5.83;;
20721;SDS011;10522;52.198;9.890;2023-05-17T03:24:46;13.63;;;5.37;;
20721;SDS011;10522;52.198;9.890;2023-05-17T03:27:12;11.40;;;5.00;;
20721;SDS011;10522;52.198;9.890;2023-05-17T03:29:37;12.87;;;4.53;;
20721;SDS011;10522;52.198;9.890;2023-05-17T03:32:03;11.87;;;5.00;;
20721;SDS011;10522;52.198;9.890;2023-05-17T03:34:29;17.10;;;4.83;;
20721;SDS011;10522;52.198;9.890;2023-05-17T03:36:54;18.43;;;4.60;;
20721;SDS011;10522;52.198;9.890;2023-05-17T03:39:20;17.97;;;4.93;;
20721;SDS011;10522;52.198;9.890;2023-05-17T03:41:45;17.67;;;4.83;;
20721;SDS011;10522;52.198;9.890;2023-05-17T03:44:11;11.90;;;4.27;;
20721;SDS011;10522;52.198;9.890;2023-05-17T03:46:37;17.33;;;5.03;;
20721;SDS011;10522;52.198;9.890;2023-05-17T03:49:02;11.80;;;4.83;;
20721;SDS011;10522;52.198;9.890;2023-05-17T03:51:28;8.33;;;4.57;;
20721;SDS011;10522;52.198;9.890;2023-05-17T03:53:57;15.60;;;4.60;;
20721;SDS011;10522;52.198;9.890;2023-05-17T03:56:24;13.67;;;4.03;;
20721;SDS011;10522;52.198;9.890;2023-05-17T03:58:49;13.47;;;4.93;;
20721;SDS011;10522;52.198;9.890;2023-05-17T04:01:15;13.53;;;4.00;;
20721;SDS011;10522;52.198;9.890;2023-05-17T04:03:41;17.23;;;4.97;;
20721;SDS011;10522;52.198;9.890;2023-05-17T04:06:07;13.70;;;4.70;;
20721;SDS011;10522;52.198;9.890;2023-05-17T04:08:33;15.00;;;4.47;;
20721;SDS011;10522;52.198;9.890;2023-05-17T04:10:59;10.73;;;4.13;;
20721;SDS011;10522;52.198;9.890;2023-05-17T04:13:34;19.90;;;4.90;;
20721;SDS011;10522;52.198;9.890;2023-05-17T04:16:01;12.93;;;4.80;;
20721;SDS011;10522;52.198;9.890;2023-05-17T04:18:26;12.17;;;4.73;;
20721;SDS011;10522;52.198;9.890;2023-05-17T04:20:53;15.53;;;5.03;;
20721;SDS011;10522;52.198;9.890;2023-05-17T04:23:19;19.30;;;5.83;;
20721;SDS011;10522;52.198;9.890;2023-05-17T04:25:45;10.77;;;5.10;;
20721;SDS011;10522;52.198;9.890;2023-05-17T04:28:10;17.70;;;5.47;;
20721;SDS011;10522;52.198;9.890;2023-05-17T04:30:40;18.30;;;4.07;;
20721;SDS011;10522;52.198;9.890;2023-05-17T04:33:10;17.70;;;5.50;;
20721;SDS011;10522;52.198;9.890;2023-05-17T04:35:36;15.60;;;5.00;;
20721;SDS011;10522;52.198;9.890;2023-05-17T04:38:02;20.00;;;5.13;;
20721;SDS011;10522;52.198;9.890;2023-05-17T04:40:28;12.03;;;4.43;;
20721;SDS011;10522;52.198;9.890;2023-05-17T04:42:53;16.17;;;4.00;;
20721;SDS011;10522;52.198;9.890;2023-05-17T04:45:19;12.20;;;4.40;;
20721;SDS011;10522;52.198;9.890;2023-05-17T04:47:45;16.70;;;4.13;;
20721;SDS011;10522;52.198;9.890;2023-05-17T04:50:11;15.53;;;5.63;;
20721;SDS011;10522;52.198;9.890;2023-05-17T04:52:36;13.87;;;3.80;;
20721;SDS011;10522;52.198;9.890;2023-05-17T04:55:02;11.83;;;4.13;;
20721;SDS011;10522;52.198;9.890;2023-05-17T04:57:29;17.33;;;3.90;;
20721;SDS011;10522;52.198;9.890;2023-05-17T04:59:54;17.40;;;4.33;;
20721;SDS011;10522;52.198;9.890;2023-05-17T05:02:20;18.37;;;5.30;;
20721;SDS011;10522;52.198;9.890;2023-05-17T05:04:45;13.17;;;3.73;;
20721;SDS011;10522;52.198;9.890;2023-05-17T05:07:11;16.80;;;4.17;;
20721;SDS011;10522;52.198;9.890;2023-05-17T05:09:36;15.83;;;4.07;;
20721;SDS011;10522;52.198;9.890;2023-05-17T05:12:02;12.90;;;4.43;;
20721;SDS011;10522;52.198;9.890;2023-05-17T05:14:28;12.27;;;3.80;;
20721;SDS011;10522;52.198;9.890;2023-05-17T05:16:54;13.77;;;4.47;;
20721;SDS011;10522;52.198;9.890;2023-05-17T05:19:19;14.00;;;4.10;;
20721;SDS011;10522;52.198;9.890;2023-05-17T05:21:45;16.90;;;4.73;;
20721;SDS011;10522;52.198;9.890;2023-05-17T05:24:11;13.30;;;4.03;;
20721;SDS011;10522;52.198;9.890;2023-05-17T05:26:36;19.20;;;3.93;;
20721;SDS011;10522;52.198;9.890;2023-05-17T05:29:02;15.00;;;3.90;;
20721;SDS011;10522;52.198;9.890;2023-05-17T05:31:28;19.43;;;4.07;;
20721;SDS011;10522;52.198;9.890;2023-05-17T05:33:54;16.60;;;3.80;;
20721;SDS011;10522;52.198;9.890;2023-05-17T05:36:19;16.47;;;4.60;;
20721;SDS011;10522;52.198;9.890;2023-05-17T05:38:45;25.33;;;5.03;;
20721;SDS011;10522;52.198;9.890;2023-05-17T05:41:11;21.87;;;4.33;;
20721;SDS011;10522;52.198;9.890;2023-05-17T05:43:37;14.93;;;4.50;;
20721;SDS011;10522;52.198;9.890;2023-05-17T05:46:02;19.30;;;4.63;;
20721;SDS011;10522;52.198;9.890;2023-05-17T05:48:28;17.30;;;4.27;;
20721;SDS011;10522;52.198;9.890;2023-05-17T05:50:54;16.47;;;4.23;;
20721;SDS011;10522;52.198;9.890;2023-05-17T05:53:19;13.67;;;3.80;;
20721;SDS011;10522;52.198;9.890;2023-05-17T05:55:45;14.27;;;3.17;;
20721;SDS011;10522;52.198;9.890;2023-05-17T05:58:11;18.93;;;5.50;;
20721;SDS011;10522;52.198;9.890;2023-05-17T06:00:36;15.17;;;3.03;;
20721;SDS011;10522;52.198;9.890;2023-05-17T06:03:02;17.47;;;3.50;;
20721;SDS011;10522;52.198;9.890;2023-05-17T06:05:28;11.07;;;2.87;;
20721;SDS011;10522;52.198;9.890;2023-05-17T06:07:54;13.47;;;2.93;;
20721;SDS011;10522;52.198;9.890;2023-05-17T06:10:19;13.53;;;3.97;;
20721;SDS011;10522;52.198;9.890;2023-05-17T06:12:45;18.40;;;3.20;;
20721;SDS011;10522;52.198;9.890;2023-05-17T06:15:11;16.23;;;2.80;;
20721;SDS011;10522;52.198;9.890;2023-05-17T06:17:36;13.00;;;3.73;;
20721;SDS011;10522;52.198;9.890;2023-05-17T06:20:02;12.17;;;2.70;;
20721;SDS011;10522;52.198;9.890;2023-05-17T06:22:28;12.60;;;2.97;;
20721;SDS011;10522;52.198;9.890;2023-05-17T06:24:53;16.93;;;3.33;;
20721;SDS011;10522;52.198;9.890;2023-05-17T06:27:19;12.27;;;3.40;;
20721;SDS011;10522;52.198;9.890;2023-05-17T06:29:44;11.17;;;2.83;;
20721;SDS011;10522;52.198;9.890;2023-05-17T06:32:10;14.20;;;3.70;;
20721;SDS011;10522;52.198;9.890;2023-05-17T06:34:36;13.10;;;3.30;;
20721;SDS011;10522;52.198;9.890;2023-05-17T06:37:03;14.03;;;2.90;;
20721;SDS011;10522;52.198;9.890;2023-05-17T06:39:29;13.80;;;3.27;;
20721;SDS011;10522;52.198;9.890;2023-05-17T06:41:55;10.90;;;3.30;;
20721;SDS011;10522;52.198;9.890;2023-05-17T06:44:20;13.40;;;3.17;;
20721;SDS011;10522;52.198;9.890;2023-05-17T06:46:46;10.47;;;2.80;;
20721;SDS011;10522;52.198;9.890;2023-05-17T06:49:11;13.10;;;2.83;;
20721;SDS011;10522;52.198;9.890;2023-05-17T06:51:37;18.13;;;3.07;;
20721;SDS011;10522;52.198;9.890;2023-05-17T06:54:03;11.07;;;3.20;;
20721;SDS011;10522;52.198;9.890;2023-05-17T06:56:28;9.53;;;2.50;;
20721;SDS011;10522;52.198;9.890;2023-05-17T06:58:54;12.83;;;3.27;;
20721;SDS011;10522;52.198;9.890;2023-05-17T07:01:19;8.80;;;3.17;;
20721;SDS011;10522;52.198;9.890;2023-05-17T07:03:45;12.60;;;2.50;;
20721;SDS011;10522;52.198;9.890;2023-05-17T07:06:10;13.20;;;3.30;;
20721;SDS011;10522;52.198;9.890;2023-05-17T07:08:36;11.70;;;2.70;;
20721;SDS011;10522;52.198;9.890;2023-05-17T07:11:03;11.33;;;2.97;;
20721;SDS011;10522;52.198;9.890;2023-05-17T07:13:30;10.33;;;3.17;;
20721;SDS011;10522;52.198;9.890;2023-05-17T07:15:57;13.00;;;3.23;;
20721;SDS011;10522;52.198;9.890;2023-05-17T07:18:23;14.43;;;3.20;;
20721;SDS011;10522;52.198;9.890;2023-05-17T07:20:48;13.27;;;2.57;;
20721;SDS011;10522;52.198;9.890;2023-05-17T07:23:14;9.20;;;2.07;;
20721;SDS011;10522;52.198;9.890;2023-05-17T07:25:40;13.03;;;3.07;;
20721;SDS011;10522;52.198;9.890;2023-05-17T07:28:07;23.30;;;3.43;;
20721;SDS011;10522;52.198;9.890;2023-05-17T07:30:32;12.33;;;2.13;;
20721;SDS011;10522;52.198;9.890;2023-05-17T07:32:58;9.47;;;2.80;;
20721;SDS011;10522;52.198;9.890;2023-05-17T07:35:24;9.43;;;1.93;;
20721;SDS011;10522;52.198;9.890;2023-05-17T07:37:50;13.37;;;2.53;;
20721;SDS011;10522;52.198;9.890;2023-05-17T07:40:15;10.80;;;2.60;;
20721;SDS011;10522;52.198;9.890;2023-05-17T07:42:41;8.90;;;2.27;;
20721;SDS011;10522;52.198;9.890;2023-05-17T07:45:07;9.37;;;2.17;;
20721;SDS011;10522;52.198;9.890;2023-05-17T07:47:33;10.07;;;2.37;;
20721;SDS011;10522;52.198;9.890;2023-05-17T07:49:58;14.43;;;2.33;;
20721;SDS011;10522;52.198;9.890;2023-05-17T07:52:24;8.80;;;2.03;;
20721;SDS011;10522;52.198;9.890;2023-05-17T07:54:49;8.10;;;2.20;;
20721;SDS011;10522;52.198;9.890;2023-05-17T07:57:15;9.00;;;1.60;;
20721;SDS011;10522;52.198;9.890;2023-05-17T07:59:41;10.33;;;2.03;;
20721;SDS011;10522;52.198;9.890;2023-05-17T08:02:06;10.03;;;2.50;;
20721;SDS011;10522;52.198;9.890;2023-05-17T08:04:32;7.10;;;1.73;;
20721;SDS011;10522;52.198;9.890;2023-05-17T08:06:57;8.53;;;1.97;;
20721;SDS011;10522;52.198;9.890;2023-05-17T08:09:24;11.67;;;2.97;;
20721;SDS011;10522;52.198;9.890;2023-05-17T08:11:50;9.17;;;1.87;;
20721;SDS011;10522;52.198;9.890;2023-05-17T08:14:16;4.53;;;1.80;;
20721;SDS011;10522;52.198;9.890;2023-05-17T08:16:42;9.53;;;2.33;;
20721;SDS011;10522;52.198;9.890;2023-05-17T08:19:09;11.50;;;1.90;;
20721;SDS011;10522;52.198;9.890;2023-05-17T08:21:39;11.40;;;2.67;;
20721;SDS011;10522;52.198;9.890;2023-05-17T08:24:06;10.23;;;1.87;;
20721;SDS011;10522;52.198;9.890;2023-05-17T08:26:32;10.27;;;2.03;;
20721;SDS011;10522;52.198;9.890;2023-05-17T08:28:59;8.33;;;2.20;;
20721;SDS011;10522;52.198;9.890;2023-05-17T08:31:26;11.00;;;2.50;;
20721;SDS011;10522;52.198;9.890;2023-05-17T08:33:52;7.60;;;1.87;;
20721;SDS011;10522;52.198;9.890;2023-05-17T08:36:17;7.93;;;2.43;;
20721;SDS011;10522;52.198;9.890;2023-05-17T08:38:43;10.63;;;2.37;;
20721;SDS011;10522;52.198;9.890;2023-05-17T08:41:09;15.33;;;2.33;;
20721;SDS011;10522;52.198;9.890;2023-05-17T08:43:34;9.67;;;1.90;;
20721;SDS011;10522;52.198;9.890;2023-05-17T08:46:02;10.87;;;2.53;;
20721;SDS011;10522;52.198;9.890;2023-05-17T08:48:28;9.70;;;2.53;;
20721;SDS011;10522;52.198;9.890;2023-05-17T08:50:57;9.13;;;2.60;;
20721;SDS011;10522;52.198;9.890;2023-05-17T08:53:24;16.63;;;2.70;;
20721;SDS011;10522;52.198;9.890;2023-05-17T08:55:50;13.90;;;2.53;;
20721;SDS011;10522;52.198;9.890;2023-05-17T08:58:21;9.97;;;2.10;;
20721;SDS011;10522;52.198;9.890;2023-05-17T09:00:50;15.87;;;1.93;;
20721;SDS011;10522;52.198;9.890;2023-05-17T09:03:18;10.33;;;3.60;;
20721;SDS011;10522;52.198;9.890;2023-05-17T09:05:46;10.43;;;2.10;;
20721;SDS011;10522;52.198;9.890;2023-05-17T09:08:16;11.20;;;2.23;;
20721;SDS011;10522;52.198;9.890;2023-05-17T09:10:42;12.23;;;1.90;;
20721;SDS011;10522;52.198;9.890;2023-05-17T09:13:10;8.23;;;2.00;;
20721;SDS011;10522;52.198;9.890;2023-05-17T09:15:42;8.10;;;2.33;;
20721;SDS011;10522;52.198;9.890;2023-05-17T09:18:11;9.73;;;3.13;;
20721;SDS011;10522;52.198;9.890;2023-05-17T09:20:38;14.90;;;3.10;;
20721;SDS011;10522;52.198;9.890;2023-05-17T09:23:05;7.13;;;2.43;;
20721;SDS011;10522;52.198;9.890;2023-05-17T09:25:33;6.97;;;2.23;;
20721;SDS011;10522;52.198;9.890;2023-05-17T09:28:01;11.90;;;2.27;;
20721;SDS011;10522;52.198;9.890;2023-05-17T09:30:27;9.83;;;2.20;;
20721;SDS011;10522;52.198;9.890;2023-05-17T09:32:54;12.60;;;2.43;;
20721;SDS011;10522;52.198;9.890;2023-05-17T09:35:28;12.50;;;2.93;;
20721;SDS011;10522;52.198;9.890;2023-05-17T09:38:07;9.33;;;3.07;;
20721;SDS011;10522;52.198;9.890;2023-05-17T09:40:47;18.37;;;3.67;;
20721;SDS011;10522;52.198;9.890;2023-05-17T09:43:13;11.30;;;2.60;;
20721;SDS011;10522;52.198;9.890;2023-05-17T09:45:41;9.47;;;2.70;;
20721;SDS011;10522;52.198;9.890;2023-05-17T09:48:10;9.27;;;3.00;;
20721;SDS011;10522;52.198;9.890;2023-05-17T09:50:36;11.07;;;2.90;;
20721;SDS011;10522;52.198;9.890;2023-05-17T09:53:15;9.27;;;2.80;;
20721;SDS011;10522;52.198;9.890;2023-05-17T09:55:52;16.37;;;3.00;;
20721;SDS011;10522;52.198;9.890;2023-05-17T09:58:22;9.63;;;2.53;;
20721;SDS011;10522;52.198;9.890;2023-05-17T10:00:50;7.20;;;2.60;;
20721;SDS011;10522;52.198;9.890;2023-05-17T10:03:18;13.73;;;3.07;;
20721;SDS011;10522;52.198;9.890;2023-05-17T10:05:43;10.90;;;2.40;;
20721;SDS011;10522;52.198;9.890;2023-05-17T10:08:11;9.33;;;2.40;;
20721;SDS011;10522;52.198;9.890;2023-05-17T10:10:39;14.97;;;2.73;;
20721;SDS011;10522;52.198;9.890;2023-05-17T10:13:07;11.93;;;2.53;;
20721;SDS011;10522;52.198;9.890;2023-05-17T10:15:35;10.20;;;2.20;;
20721;SDS011;10522;52.198;9.890;2023-05-17T10:18:02;11.00;;;2.87;;
20721;SDS011;10522;52.198;9.890;2023-05-17T10:20:30;10.60;;;2.33;;
20721;SDS011;10522;52.198;9.890;2023-05-17T10:22:56;13.63;;;2.50;;
20721;SDS011;10522;52.198;9.890;2023-05-17T10:25:24;15.33;;;3.40;;
20721;SDS011;10522;52.198;9.890;2023-05-17T10:27:51;8.20;;;2.43;;
20721;SDS011;10522;52.198;9.890;2023-05-17T10:30:17;7.93;;;2.37;;
20721;SDS011;10522;52.198;9.890;2023-05-17T10:32:44;10.57;;;2.27;;
20721;SDS011;10522;52.198;9.890;2023-05-17T10:35:11;11.83;;;2.47;;
20721;SDS011;10522;52.198;9.890;2023-05-17T10:37:39;7.73;;;2.10;;
20721;SDS011;10522;52.198;9.890;2023-05-17T10:40:05;13.43;;;3.07;;
20721;SDS011;10522;52.198;9.890;2023-05-17T10:42:37;11.80;;;1.97;;
20721;SDS011;10522;52.198;9.890;2023-05-17T10:45:07;11.80;;;2.33;;
20721;SDS011;10522;52.198;9.890;2023-05-17T10:47:38;11.63;;;2.27;;
20721;SDS011;10522;52.198;9.890;2023-05-17T10:50:12;9.17;;;2.50;;
20721;SDS011;10522;52.198;9.890;2023-05-17T10:52:44;12.07;;;2.73;;
20721;SDS011;10522;52.198;9.890;2023-05-17T10:55:11;10.90;;;2.63;;
20721;SDS011;10522;52.198;9.890;2023-05-17T10:57:37;16.40;;;2.67;;
20721;SDS011;10522;52.198;9.890;2023-05-17T11:00:03;8.60;;;2.20;;
20721;SDS011;10522;52.198;9.890;2023-05-17T11:02:32;10.07;;;2.50;;
20721;SDS011;10522;52.198;9.890;2023-05-17T11:04:58;15.17;;;2.53;;
20721;SDS011;10522;52.198;9.890;2023-05-17T11:07:25;10.77;;;2.77;;
20721;SDS011;10522;52.198;9.890;2023-05-17T11:12:37;14.80;;;2.50;;
20721;SDS011;10522;52.198;9.890;2023-05-17T11:15:11;11.27;;;2.93;;
20721;SDS011;10522;52.198;9.890;2023-05-17T11:22:57;10.47;;;2.60;;
20721;SDS011;10522;52.198;9.890;2023-05-17T11:25:31;9.70;;;2.20;;
20721;SDS011;10522;52.198;9.890;2023-05-17T11:27:59;11.60;;;3.23;;
20721;SDS011;10522;52.198;9.890;2023-05-17T11:30:30;9.93;;;2.27;;
20721;SDS011;10522;52.198;9.890;2023-05-17T11:33:03;12.63;;;2.73;;
20721;SDS011;10522;52.198;9.890;2023-05-17T11:35:33;6.33;;;2.30;;
20721;SDS011;10522;52.198;9.890;2023-05-17T11:40:40;8.50;;;2.30;;
20721;SDS011;10522;52.198;9.890;2023-05-17T11:43:10;8.00;;;2.37;;
20721;SDS011;10522;52.198;9.890;2023-05-17T11:48:14;7.07;;;2.30;;
20721;SDS011;10522;52.198;9.890;2023-05-17T11:50:41;8.83;;;2.43;;
20721;SDS011;10522;52.198;9.890;2023-05-17T11:53:08;7.73;;;2.77;;
20721;SDS011;10522;52.198;9.890;2023-05-17T11:55:44;11.33;;;2.83;;
20721;SDS011;10522;52.198;9.890;2023-05-17T11:58:12;8.97;;;2.80;;
20721;SDS011;10522;52.198;9.890;2023-05-17T12:00:40;9.73;;;2.40;;
20721;SDS011;10522;52.198;9.890;2023-05-17T12:03:19;12.80;;;2.97;;
20721;SDS011;10522;52.198;9.890;2023-05-17T12:05:47;10.10;;;2.47;;
20721;SDS011;10522;52.198;9.890;2023-05-17T12:08:15;13.13;;;2.67;;
20721;SDS011;10522;52.198;9.890;2023-05-17T12:10:45;13.57;;;2.97;;
20721;SDS011;10522;52.198;9.890;2023-05-17T12:13:15;12.80;;;3.40;;
20721;SDS011;10522;52.198;9.890;2023-05-17T12:15:46;10.00;;;3.00;;
20721;SDS011;10522;52.198;9.890;2023-05-17T12:18:15;8.80;;;2.80;;
20721;SDS011;10522;52.198;9.890;2023-05-17T12:20:56;9.67;;;2.20;;
20721;SDS011;10522;52.198;9.890;2023-05-17T12:23:31;16.33;;;3.03;;
20721;SDS011;10522;52.198;9.890;2023-05-17T12:26:04;6.77;;;2.40;;
20721;SDS011;10522;52.198;9.890;2023-05-17T12:28:34;7.57;;;2.70;;
20721;SDS011;10522;52.198;9.890;2023-05-17T12:31:01;9.63;;;3.17;;
20721;SDS011;10522;52.198;9.890;2023-05-17T12:33:29;8.33;;;2.37;;
20721;SDS011;10522;52.198;9.890;2023-05-17T12:35:56;6.03;;;2.67;;
20721;SDS011;10522;52.198;9.890;2023-05-17T12:38:22;9.17;;;2.90;;
20721;SDS011;10522;52.198;9.890;2023-05-17T12:40:51;7.93;;;2.07;;
20721;SDS011;10522;52.198;9.890;2023-05-17T12:43:17;11.40;;;2.63;;
20721;SDS011;10522;52.198;9.890;2023-05-17T12:45:43;5.33;;;1.70;;
20721;SDS011;10522;52.198;9.890;2023-05-17T12:48:11;9.33;;;2.63;;
20721;SDS011;10522;52.198;9.890;2023-05-17T12:50:36;7.27;;;2.07;;
20721;SDS011;10522;52.198;9.890;2023-05-17T12:53:06;9.67;;;2.47;;
20721;SDS011;10522;52.198;9.890;2023-05-17T12:55:36;7.33;;;2.53;;
20721;SDS011;10522;52.198;9.890;2023-05-17T12:58:02;7.90;;;1.90;;
20721;SDS011;10522;52.198;9.890;2023-05-17T13:00:28;6.67;;;2.53;;
20721;SDS011;10522;52.198;9.890;2023-05-17T13:02:54;14.73;;;2.70;;
20721;SDS011;10522;52.198;9.890;2023-05-17T13:05:20;10.23;;;1.90;;
20721;SDS011;10522;52.198;9.890;2023-05-17T13:07:46;9.03;;;2.40;;
20721;SDS011;10522;52.198;9.890;2023-05-17T13:10:45;5.43;;;2.00;;
20721;SDS011;10522;52.198;9.890;2023-05-17T13:13:04;5.90;;;2.33;;
20721;SDS011;10522;52.198;9.890;2023-05-17T13:15:31;5.20;;;2.10;;
20721;SDS011;10522;52.198;9.890;2023-05-17T13:17:58;7.40;;;2.27;;
20721;SDS011;10522;52.198;9.890;2023-05-17T13:20:25;7.80;;;1.90;;
20721;SDS011;10522;52.198;9.890;2023-05-17T13:22:51;6.40;;;1.90;;
20721;SDS011;10522;52.198;9.890;2023-05-17T13:25:17;5.60;;;2.10;;
20721;SDS011;10522;52.198;9.890;2023-05-17T13:27:44;8.43;;;2.40;;
20721;SDS011;10522;52.198;9.890;2023-05-17T13:30:12;11.30;;;2.30;;
20721;SDS011;10522;52.198;9.890;2023-05-17T13:32:41;6.20;;;1.90;;
20721;SDS011;10522;52.198;9.890;2023-05-17T13:35:08;7.10;;;1.80;;
20721;SDS011;10522;52.198;9.890;2023-05-17T13:37:34;4.27;;;1.87;;
20721;SDS011;10522;52.198;9.890;2023-05-17T13:40:00;11.60;;;2.03;;
20721;SDS011;10522;52.198;9.890;2023-05-17T13:42:28;7.33;;;2.10;;
20721;SDS011;10522;52.198;9.890;2023-05-17T13:44:54;11.13;;;2.10;;
20721;SDS011;10522;52.198;9.890;2023-05-17T13:47:20;7.50;;;3.10;;
20721;SDS011;10522;52.198;9.890;2023-05-17T13:49:46;8.83;;;2.47;;
20721;SDS011;10522;52.198;9.890;2023-05-17T13:52:12;6.47;;;2.73;;
20721;SDS011;10522;52.198;9.890;2023-05-17T13:54:38;7.77;;;2.20;;
20721;SDS011;10522;52.198;9.890;2023-05-17T13:57:04;10.50;;;2.03;;
20721;SDS011;10522;52.198;9.890;2023-05-17T13:59:31;9.63;;;3.03;;
20721;SDS011;10522;52.198;9.890;2023-05-17T14:01:57;6.03;;;1.93;;
20721;SDS011;10522;52.198;9.890;2023-05-17T14:04:23;8.33;;;2.03;;
20721;SDS011;10522;52.198;9.890;2023-05-17T14:06:49;3.90;;;1.73;;
20721;SDS011;10522;52.198;9.890;2023-05-17T14:09:15;7.07;;;2.73;;
20721;SDS011;10522;52.198;9.890;2023-05-17T14:11:41;6.43;;;2.27;;
20721;SDS011;10522;52.198;9.890;2023-05-17T14:14:06;11.37;;;2.70;;
20721;SDS011;10522;52.198;9.890;2023-05-17T14:16:32;10.27;;;2.30;;
20721;SDS011;10522;52.198;9.890;2023-05-17T14:18:58;6.33;;;2.30;;
20721;SDS011;10522;52.198;9.890;2023-05-17T14:21:24;7.10;;;2.17;;
20721;SDS011;10522;52.198;9.890;2023-05-17T14:23:50;7.47;;;2.33;;
20721;SDS011;10522;52.198;9.890;2023-05-17T14:26:16;17.20;;;3.13;;
20721;SDS011;10522;52.198;9.890;2023-05-17T14:28:41;9.00;;;2.60;;
20721;SDS011;10522;52.198;9.890;2023-05-17T14:31:07;6.50;;;2.50;;
20721;SDS011;10522;52.198;9.890;2023-05-17T14:33:34;6.07;;;2.53;;
20721;SDS011;10522;52.198;9.890;2023-05-17T14:36:00;8.63;;;2.27;;
20721;SDS011;10522;52.198;9.890;2023-05-17T14:38:27;7.57;;;1.90;;
20721;SDS011;10522;52.198;9.890;2023-05-17T14:40:53;9.07;;;1.90;;
20721;SDS011;10522;52.198;9.890;2023-05-17T14:43:18;3.90;;;2.10;;
20721;SDS011;10522;52.198;9.890;2023-05-17T14:45:46;6.33;;;2.60;;
20721;SDS011;10522;52.198;9.890;2023-05-17T14:48:21;5.03;;;2.23;;
20721;SDS011;10522;52.198;9.890;2023-05-17T14:50:46;4.83;;;2.17;;
20721;SDS011;10522;52.198;9.890;2023-05-17T14:53:12;12.10;;;2.30;;
20721;SDS011;10522;52.198;9.890;2023-05-17T14:55:37;8.53;;;2.30;;
20721;SDS011;10522;52.198;9.890;2023-05-17T14:58:03;4.47;;;1.70;;
20721;SDS011;10522;52.198;9.890;2023-05-17T15:00:29;6.63;;;1.87;;
20721;SDS011;10522;52.198;9.890;2023-05-17T15:02:54;8.83;;;2.13;;